createdAt,value
2019-05-23T00:00:42.800Z,21.60
2019-05-23T00:01:42.792Z,21.73
2019-05-23T00:02:42.787Z,21.62
2019-05-23T00:03:42.845Z,21.57
2019-05-23T00:04:42.758Z,21.58
2019-05-23T00:05:42.745Z,21.60
2019-05-23T00:06:42.780Z,21.60
2019-05-23T00:07:42.733Z,21.61
2019-05-23T00:08:42.711Z,21.69
2019-05-23T00:09:42.737Z,21.57
2019-05-23T00:10:42.693Z,21.62
2019-05-23T00:11:42.685Z,21.76
2019-05-23T00:12:42.669Z,21.61
2019-05-23T00:13:42.720Z,21.64
2019-05-23T00:14:42.654Z,21.60
2019-05-23T00:15:42.663Z,21.60
2019-05-23T00:16:42.634Z,21.69
2019-05-23T00:17:50.429Z,21.70
2019-05-23T00:18:42.608Z,21.61
2019-05-23T00:19:42.597Z,21.60
2019-05-23T00:20:42.616Z,21.62
2019-05-23T00:21:42.600Z,21.73
2019-05-23T00:22:42.707Z,21.52
2019-05-23T00:23:42.569Z,21.64
2019-05-23T00:24:42.585Z,21.62
2019-05-23T00:25:42.532Z,21.57
2019-05-23T00:26:42.561Z,21.60
2019-05-23T00:27:42.545Z,21.72
2019-05-23T00:28:42.495Z,21.64
2019-05-23T00:29:42.482Z,21.70
2019-05-23T00:30:42.473Z,21.67
2019-05-23T00:31:42.463Z,21.55
2019-05-23T00:32:42.527Z,21.69
2019-05-23T00:33:42.477Z,21.69
2019-05-23T00:34:42.497Z,21.61
2019-05-23T00:35:42.424Z,21.73
2019-05-23T00:36:42.424Z,21.69
2019-05-23T00:37:42.395Z,21.67
2019-05-23T00:38:42.430Z,21.69
2019-05-23T00:39:42.394Z,21.67
2019-05-23T00:40:42.363Z,21.64
2019-05-23T00:41:42.355Z,21.70
2019-05-23T00:42:42.339Z,21.67
2019-05-23T00:43:42.338Z,21.60
2019-05-23T00:44:42.314Z,21.67
2019-05-23T00:45:42.365Z,21.57
2019-05-23T00:46:42.294Z,21.67
2019-05-23T00:47:42.291Z,21.54
2019-05-23T00:48:42.270Z,21.60
2019-05-23T00:49:42.260Z,21.69
2019-05-23T00:50:42.302Z,21.69
2019-05-23T00:51:50.022Z,21.72
2019-05-23T00:52:42.248Z,21.61
2019-05-23T00:53:50.021Z,21.55
2019-05-23T00:54:42.204Z,21.70
2019-05-23T00:55:42.195Z,21.69
2019-05-23T00:56:42.184Z,21.60
2019-05-23T00:57:42.194Z,21.67
2019-05-23T00:58:42.204Z,21.67
2019-05-23T00:59:50.055Z,21.69
2019-05-23T01:00:42.144Z,21.60
2019-05-23T01:01:42.133Z,21.66
2019-05-23T01:02:42.172Z,21.57
2019-05-23T01:03:42.167Z,21.70
2019-05-23T01:04:42.218Z,21.58
2019-05-23T01:05:42.087Z,21.66
2019-05-23T01:06:42.131Z,21.58
2019-05-23T01:07:42.066Z,21.69
2019-05-23T01:08:42.054Z,21.67
2019-05-23T01:09:42.074Z,21.57
2019-05-23T01:10:42.073Z,21.69
2019-05-23T01:11:42.076Z,21.73
2019-05-23T01:12:42.012Z,21.55
2019-05-23T01:13:41.999Z,21.67
2019-05-23T01:14:41.983Z,21.48
2019-05-23T01:15:42.006Z,21.57
2019-05-23T01:16:42.090Z,21.69
2019-05-23T01:17:41.958Z,21.66
2019-05-23T01:18:49.597Z,21.57
2019-05-23T01:19:41.935Z,21.67
2019-05-23T01:20:41.922Z,21.66
2019-05-23T01:21:41.991Z,21.64
2019-05-23T01:22:41.910Z,21.62
2019-05-23T01:23:41.886Z,21.69
2019-05-23T01:24:41.886Z,21.67
2019-05-23T01:25:41.863Z,21.64
2019-05-23T01:26:49.176Z,21.55
2019-05-23T01:27:49.679Z,21.62
2019-05-23T01:28:41.834Z,21.60
2019-05-23T01:29:41.825Z,21.70
2019-05-23T01:30:41.846Z,21.55
2019-05-23T01:31:41.820Z,21.67
2019-05-23T01:32:42.081Z,21.67
2019-05-23T01:33:41.782Z,21.69
2019-05-23T01:34:41.768Z,21.60
2019-05-23T01:35:41.755Z,21.67
2019-05-23T01:36:41.742Z,21.66
2019-05-23T01:37:41.768Z,21.60
2019-05-23T01:38:41.747Z,21.70
2019-05-23T01:39:41.819Z,21.57
2019-05-23T01:40:41.698Z,21.70
2019-05-23T01:41:41.694Z,21.64
2019-05-23T01:42:41.681Z,21.55
2019-05-23T01:43:41.671Z,21.66
2019-05-23T01:44:41.806Z,21.55
2019-05-23T01:45:41.645Z,21.67
2019-05-23T01:46:41.644Z,21.67
2019-05-23T01:47:41.669Z,21.58
2019-05-23T01:48:41.614Z,21.57
2019-05-23T01:49:41.657Z,21.55
2019-05-23T01:50:41.621Z,21.67
2019-05-23T01:51:41.581Z,21.57
2019-05-23T01:52:41.566Z,21.67
2019-05-23T01:53:41.566Z,21.57
2019-05-23T01:54:49.230Z,21.57
2019-05-23T01:55:41.544Z,21.61
2019-05-23T01:56:48.783Z,21.57
2019-05-23T01:57:41.520Z,21.57
2019-05-23T01:58:41.505Z,21.55
2019-05-23T01:59:41.540Z,21.62
2019-05-23T02:00:41.485Z,21.55
2019-05-23T02:01:41.473Z,21.57
2019-05-23T02:02:41.532Z,21.57
2019-05-23T02:03:41.449Z,21.57
2019-05-23T02:04:41.447Z,21.58
2019-05-23T02:05:41.427Z,21.55
2019-05-23T02:06:41.419Z,21.66
2019-05-23T02:07:41.413Z,21.67
2019-05-23T02:08:41.508Z,21.57
2019-05-23T02:09:41.394Z,21.60
2019-05-23T02:10:41.447Z,21.60
2019-05-23T02:11:41.360Z,21.51
2019-05-23T02:12:41.351Z,21.64
2019-05-23T02:13:41.342Z,21.61
2019-05-23T02:14:41.356Z,21.52
2019-05-23T02:15:41.388Z,21.58
2019-05-23T02:16:41.306Z,21.57
2019-05-23T02:17:41.295Z,21.64
2019-05-23T02:18:41.284Z,21.58
2019-05-23T02:19:41.275Z,21.55
2019-05-23T02:20:41.347Z,21.55
2019-05-23T02:21:41.251Z,21.54
2019-05-23T02:22:41.253Z,21.58
2019-05-23T02:23:41.236Z,21.55
2019-05-23T02:24:41.249Z,21.57
2019-05-23T02:25:41.215Z,21.55
2019-05-23T02:26:41.345Z,21.60
2019-05-23T02:27:41.180Z,21.54
2019-05-23T02:28:41.187Z,21.54
2019-05-23T02:29:41.161Z,21.55
2019-05-23T02:30:41.155Z,21.60
2019-05-23T02:31:41.171Z,21.52
2019-05-23T02:32:41.219Z,21.57
2019-05-23T02:33:41.131Z,21.55
2019-05-23T02:34:41.213Z,21.54
2019-05-23T02:35:41.101Z,21.61
2019-05-23T02:36:41.091Z,21.54
2019-05-23T02:37:41.205Z,21.57
2019-05-23T02:38:41.089Z,21.57
2019-05-23T02:39:41.051Z,21.57
2019-05-23T02:40:41.050Z,21.57
2019-05-23T02:41:41.065Z,21.57
2019-05-23T02:42:41.033Z,21.61
2019-05-23T02:43:41.036Z,21.61
2019-05-23T02:44:41.089Z,21.57
2019-05-23T02:45:40.991Z,21.57
2019-05-23T02:46:41.058Z,21.52
2019-05-23T02:47:40.960Z,21.61
2019-05-23T02:48:40.949Z,21.66
2019-05-23T02:49:40.955Z,21.60
2019-05-23T02:50:40.966Z,21.62
2019-05-23T02:51:40.918Z,21.55
2019-05-23T02:52:40.911Z,21.60
2019-05-23T02:53:40.900Z,21.54
2019-05-23T02:54:40.886Z,21.64
2019-05-23T02:55:40.892Z,21.58
2019-05-23T02:56:40.884Z,21.60
2019-05-23T02:57:40.866Z,21.55
2019-05-23T02:58:40.873Z,21.57
2019-05-23T02:59:40.895Z,21.60
2019-05-23T03:00:53.345Z,21.54
2019-05-23T03:01:42.034Z,21.60
2019-05-23T03:02:40.802Z,21.57
2019-05-23T03:03:40.786Z,21.58
2019-05-23T03:04:40.775Z,21.60
2019-05-23T03:05:40.773Z,21.58
2019-05-23T03:06:40.759Z,21.61
2019-05-23T03:07:40.827Z,21.58
2019-05-23T03:08:40.785Z,21.55
2019-05-23T03:09:40.723Z,21.57
2019-05-23T03:10:40.708Z,21.61
2019-05-23T03:11:40.701Z,21.61
2019-05-23T03:12:40.739Z,21.55
2019-05-23T03:13:40.767Z,21.57
2019-05-23T03:14:40.727Z,21.57
2019-05-23T03:15:40.657Z,21.52
2019-05-23T03:16:40.654Z,21.57
2019-05-23T03:17:40.639Z,21.58
2019-05-23T03:18:40.621Z,21.61
2019-05-23T03:19:40.836Z,21.58
2019-05-23T03:20:48.331Z,21.57
2019-05-23T03:21:40.589Z,21.58
2019-05-23T03:22:40.580Z,21.61
2019-05-23T03:23:40.572Z,21.54
2019-05-23T03:24:40.554Z,21.57
2019-05-23T03:25:40.589Z,21.57
2019-05-23T03:26:40.628Z,21.55
2019-05-23T03:27:40.537Z,21.55
2019-05-23T03:28:40.633Z,21.60
2019-05-23T03:29:48.887Z,21.55
2019-05-23T03:30:40.513Z,21.55
2019-05-23T03:31:40.518Z,21.57
2019-05-23T03:32:40.485Z,21.55
2019-05-23T03:33:40.467Z,21.58
2019-05-23T03:34:40.456Z,21.54
2019-05-23T03:35:40.442Z,21.60
2019-05-23T03:36:40.440Z,21.50
2019-05-23T03:37:40.511Z,21.57
2019-05-23T03:38:40.406Z,21.58
2019-05-23T03:39:40.530Z,21.60
2019-05-23T03:40:40.393Z,21.57
2019-05-23T03:41:40.384Z,21.57
2019-05-23T03:42:40.386Z,21.55
2019-05-23T03:43:40.384Z,21.58
2019-05-23T03:44:40.437Z,21.61
2019-05-23T03:45:40.422Z,21.58
2019-05-23T03:46:40.327Z,21.60
2019-05-23T03:47:40.355Z,21.54
2019-05-23T03:48:40.300Z,21.52
2019-05-23T03:49:40.391Z,21.60
2019-05-23T03:50:40.273Z,21.55
2019-05-23T03:51:40.258Z,21.57
2019-05-23T03:52:40.308Z,21.60
2019-05-23T03:53:40.243Z,21.54
2019-05-23T03:54:40.241Z,21.50
2019-05-23T03:55:40.261Z,21.58
2019-05-23T03:56:47.931Z,21.45
2019-05-23T03:57:40.192Z,21.48
2019-05-23T03:58:40.179Z,21.54
2019-05-23T03:59:40.171Z,21.57
2019-05-23T04:00:40.315Z,21.58
2019-05-23T04:01:47.627Z,21.51
2019-05-23T04:02:41.150Z,21.57
2019-05-23T04:03:40.694Z,21.60
2019-05-23T04:04:40.223Z,21.60
2019-05-23T04:05:40.198Z,21.55
2019-05-23T04:06:40.135Z,21.57
2019-05-23T04:07:40.120Z,21.51
2019-05-23T04:08:40.114Z,21.54
2019-05-23T04:09:40.069Z,21.55
2019-05-23T04:10:40.055Z,21.52
2019-05-23T04:11:40.044Z,21.55
2019-05-23T04:12:40.025Z,21.57
2019-05-23T04:13:40.101Z,21.62
2019-05-23T04:14:40.009Z,21.54
2019-05-23T04:15:39.993Z,21.60
2019-05-23T04:16:47.973Z,21.58
2019-05-23T04:17:39.975Z,21.58
2019-05-23T04:18:39.961Z,21.52
2019-05-23T04:19:40.010Z,21.50
2019-05-23T04:20:39.939Z,21.58
2019-05-23T04:21:39.941Z,21.55
2019-05-23T04:22:40.009Z,21.55
2019-05-23T04:23:39.973Z,21.55
2019-05-23T04:24:39.907Z,21.52
2019-05-23T04:25:39.922Z,21.55
2019-05-23T04:26:39.883Z,21.50
2019-05-23T04:27:39.939Z,21.51
2019-05-23T04:28:39.869Z,21.54
2019-05-23T04:29:39.842Z,21.50
2019-05-23T04:30:39.831Z,21.62
2019-05-23T04:31:39.848Z,21.54
2019-05-23T04:32:39.809Z,21.50
2019-05-23T04:33:39.807Z,21.50
2019-05-23T04:34:39.789Z,21.57
2019-05-23T04:35:39.777Z,21.48
2019-05-23T04:36:39.766Z,21.55
2019-05-23T04:37:39.771Z,21.62
2019-05-23T04:38:39.751Z,21.57
2019-05-23T04:39:39.825Z,21.55
2019-05-23T04:40:39.717Z,21.54
2019-05-23T04:41:39.718Z,21.52
2019-05-23T04:42:39.701Z,21.50
2019-05-23T04:43:39.760Z,21.48
2019-05-23T04:44:44.076Z,21.57
2019-05-23T04:45:40.676Z,21.57
2019-05-23T04:46:39.659Z,21.50
2019-05-23T04:47:39.643Z,21.58
2019-05-23T04:48:39.786Z,21.51
2019-05-23T04:49:39.665Z,21.54
2019-05-23T04:50:39.863Z,21.58
2019-05-23T04:51:39.609Z,21.48
2019-05-23T04:52:39.588Z,21.55
2019-05-23T04:53:39.577Z,21.57
2019-05-23T04:54:39.584Z,21.60
2019-05-23T04:55:39.584Z,21.58
2019-05-23T04:56:39.613Z,21.55
2019-05-23T04:57:39.531Z,21.57
2019-05-23T04:58:39.585Z,21.52
2019-05-23T04:59:39.512Z,21.54
2019-05-23T05:00:39.554Z,21.57
2019-05-23T05:01:39.525Z,21.57
2019-05-23T05:02:39.695Z,21.52
2019-05-23T05:03:39.544Z,21.57
2019-05-23T05:04:39.456Z,21.55
2019-05-23T05:05:39.643Z,21.60
2019-05-23T05:06:39.490Z,21.50
2019-05-23T05:07:39.452Z,21.58
2019-05-23T05:08:39.429Z,21.48
2019-05-23T05:09:39.399Z,21.52
2019-05-23T05:10:39.431Z,21.46
2019-05-23T05:11:39.509Z,21.58
2019-05-23T05:12:39.364Z,21.58
2019-05-23T05:13:39.427Z,21.50
2019-05-23T05:14:39.346Z,21.57
2019-05-23T05:15:39.335Z,21.52
2019-05-23T05:16:39.328Z,21.55
2019-05-23T05:17:39.351Z,21.48
2019-05-23T05:18:39.318Z,21.57
2019-05-23T05:19:39.411Z,21.46
2019-05-23T05:20:39.326Z,21.51
2019-05-23T05:21:39.270Z,21.58
2019-05-23T05:22:39.329Z,21.55
2019-05-23T05:23:39.299Z,21.55
2019-05-23T05:24:40.256Z,21.57
2019-05-23T05:25:39.246Z,21.57
2019-05-23T05:26:39.455Z,21.48
2019-05-23T05:27:39.225Z,21.51
2019-05-23T05:28:39.326Z,21.52
2019-05-23T05:29:39.179Z,21.60
2019-05-23T05:30:39.170Z,21.51
2019-05-23T05:31:39.905Z,21.57
2019-05-23T05:32:44.543Z,21.50
2019-05-23T05:33:40.213Z,21.51
2019-05-23T05:34:39.258Z,21.48
2019-05-23T05:35:39.115Z,21.58
2019-05-23T05:36:39.114Z,21.55
2019-05-23T05:37:39.537Z,21.51
2019-05-23T05:38:39.092Z,21.46
2019-05-23T05:39:47.532Z,21.45
2019-05-23T05:40:39.062Z,21.55
2019-05-23T05:41:39.066Z,21.54
2019-05-23T05:42:39.040Z,21.54
2019-05-23T05:43:39.101Z,21.50
2019-05-23T05:44:39.491Z,21.54
2019-05-23T05:45:39.002Z,21.57
2019-05-23T05:46:39.040Z,21.52
2019-05-23T05:47:39.014Z,21.51
2019-05-23T05:48:39.068Z,21.52
2019-05-23T05:49:42.206Z,21.51
2019-05-23T05:50:39.152Z,21.55
2019-05-23T05:51:39.238Z,21.55
2019-05-23T05:52:38.946Z,21.54
2019-05-23T05:53:38.921Z,21.46
2019-05-23T05:54:38.958Z,21.51
2019-05-23T05:55:38.913Z,21.51
2019-05-23T05:56:38.888Z,21.48
2019-05-23T05:57:39.155Z,21.55
2019-05-23T05:58:38.896Z,21.51
2019-05-23T05:59:38.868Z,21.46
2019-05-23T06:00:38.963Z,21.48
2019-05-23T06:01:38.863Z,21.48
2019-05-23T06:02:38.854Z,21.55
2019-05-23T06:03:38.813Z,21.46
2019-05-23T06:04:38.791Z,21.54
2019-05-23T06:05:38.787Z,21.51
2019-05-23T06:06:38.809Z,21.50
2019-05-23T06:07:38.790Z,21.52
2019-05-23T06:08:38.753Z,21.48
2019-05-23T06:09:38.735Z,21.50
2019-05-23T06:10:38.744Z,21.58
2019-05-23T06:11:38.767Z,21.58
2019-05-23T06:12:38.703Z,21.55
2019-05-23T06:13:38.720Z,21.54
2019-05-23T06:14:38.687Z,21.52
2019-05-23T06:15:38.986Z,21.52
2019-05-23T06:16:38.689Z,21.50
2019-05-23T06:17:38.662Z,21.46
2019-05-23T06:18:38.641Z,21.58
2019-05-23T06:19:38.669Z,21.52
2019-05-23T06:20:40.957Z,21.52
2019-05-23T06:21:38.670Z,21.55
2019-05-23T06:22:38.645Z,21.55
2019-05-23T06:23:38.772Z,21.51
2019-05-23T06:24:46.946Z,21.54
2019-05-23T06:25:39.589Z,21.52
2019-05-23T06:26:38.584Z,21.50
2019-05-23T06:27:38.784Z,21.50
2019-05-23T06:28:38.534Z,21.52
2019-05-23T06:29:38.653Z,21.52
2019-05-23T06:30:38.532Z,21.52
2019-05-23T06:31:38.549Z,21.50
2019-05-23T06:32:38.499Z,21.61
2019-05-23T06:33:38.559Z,21.54
2019-05-23T06:34:38.485Z,21.57
2019-05-23T06:35:38.537Z,21.58
2019-05-23T06:36:38.442Z,21.58
2019-05-23T06:37:38.602Z,21.58
2019-05-23T06:38:38.423Z,21.55
2019-05-23T06:39:38.457Z,21.58
2019-05-23T06:40:38.410Z,21.57
2019-05-23T06:41:38.606Z,21.55
2019-05-23T06:42:38.406Z,21.60
2019-05-23T06:43:38.577Z,21.58
2019-05-23T06:44:38.360Z,21.60
2019-05-23T06:45:38.416Z,21.57
2019-05-23T06:46:38.422Z,21.54
2019-05-23T06:47:39.748Z,21.57
2019-05-23T06:48:38.313Z,21.52
2019-05-23T06:49:38.410Z,21.58
2019-05-23T06:50:38.292Z,21.60
2019-05-23T06:51:38.416Z,21.61
2019-05-23T06:52:38.453Z,21.57
2019-05-23T06:53:38.315Z,21.54
2019-05-23T06:54:38.252Z,21.55
2019-05-23T06:55:38.317Z,21.58
2019-05-23T06:56:38.392Z,21.67
2019-05-23T06:57:38.242Z,21.66
2019-05-23T06:58:38.576Z,21.48
2019-05-23T06:59:38.190Z,21.70
2019-05-23T07:00:38.196Z,21.70
2019-05-23T07:01:38.412Z,21.55
2019-05-23T07:02:38.194Z,21.67
2019-05-23T07:03:43.095Z,21.69
2019-05-23T07:04:39.259Z,21.58
2019-05-23T07:05:38.143Z,21.70
2019-05-23T07:06:38.124Z,21.60
2019-05-23T07:07:38.168Z,21.52
2019-05-23T07:08:38.341Z,21.67
2019-05-23T07:09:38.114Z,21.62
2019-05-23T07:10:38.142Z,21.66
2019-05-23T07:11:38.098Z,21.62
2019-05-23T07:12:38.047Z,21.69
2019-05-23T07:13:38.145Z,21.69
2019-05-23T07:14:38.122Z,21.64
2019-05-23T07:15:38.011Z,21.70
2019-05-23T07:16:38.131Z,21.66
2019-05-23T07:17:38.016Z,21.66
2019-05-23T07:18:37.983Z,21.69
2019-05-23T07:19:38.061Z,21.72
2019-05-23T07:20:38.045Z,21.69
2019-05-23T07:21:37.972Z,21.69
2019-05-23T07:22:38.033Z,21.70
2019-05-23T07:23:38.059Z,21.66
2019-05-23T07:24:37.924Z,21.57
2019-05-23T07:25:37.936Z,21.70
2019-05-23T07:26:37.987Z,21.67
2019-05-23T07:27:37.888Z,21.73
2019-05-23T07:28:37.876Z,21.67
2019-05-23T07:29:37.861Z,21.72
2019-05-23T07:30:37.848Z,21.69
2019-05-23T07:31:38.017Z,21.72
2019-05-23T07:32:37.885Z,21.70
2019-05-23T07:33:37.814Z,21.67
2019-05-23T07:34:37.859Z,21.66
2019-05-23T07:35:37.798Z,21.72
2019-05-23T07:36:37.785Z,21.75
2019-05-23T07:37:37.816Z,21.73
2019-05-23T07:38:37.814Z,21.79
2019-05-23T07:39:37.748Z,21.76
2019-05-23T07:40:37.803Z,21.64
2019-05-23T07:41:37.744Z,21.76
2019-05-23T07:42:37.769Z,21.76
2019-05-23T07:43:39.165Z,21.73
2019-05-23T07:44:47.836Z,21.70
2019-05-23T07:45:39.979Z,21.80
2019-05-23T07:46:37.673Z,21.75
2019-05-23T07:47:40.058Z,21.79
2019-05-23T07:48:37.670Z,21.79
2019-05-23T07:49:37.672Z,21.80
2019-05-23T07:50:37.632Z,21.69
2019-05-23T07:51:37.618Z,21.79
2019-05-23T07:52:37.642Z,21.76
2019-05-23T07:53:37.747Z,21.76
2019-05-23T07:54:37.587Z,21.76
2019-05-23T07:55:37.603Z,21.75
2019-05-23T07:56:37.566Z,21.77
2019-05-23T07:57:37.556Z,21.79
2019-05-23T07:58:37.814Z,21.73
2019-05-23T07:59:37.534Z,21.79
2019-05-23T08:00:37.568Z,21.77
2019-05-23T08:01:37.918Z,21.80
2019-05-23T08:02:37.502Z,21.85
2019-05-23T08:03:37.665Z,21.79
2019-05-23T08:04:37.471Z,21.77
2019-05-23T08:05:37.464Z,21.79
2019-05-23T08:06:37.462Z,21.88
2019-05-23T08:07:37.550Z,21.82
2019-05-23T08:08:37.442Z,21.75
2019-05-23T08:09:37.759Z,21.79
2019-05-23T08:10:37.436Z,21.79
2019-05-23T08:11:37.399Z,21.79
2019-05-23T08:12:37.654Z,21.80
2019-05-23T08:13:37.423Z,21.76
2019-05-23T08:14:37.370Z,21.83
2019-05-23T08:15:37.595Z,21.89
2019-05-23T08:16:37.344Z,21.76
2019-05-23T08:17:37.339Z,21.88
2019-05-23T08:18:37.416Z,21.76
2019-05-23T08:19:48.968Z,21.82
2019-05-23T08:20:38.324Z,21.77
2019-05-23T08:21:37.292Z,21.79
2019-05-23T08:22:37.754Z,21.93
2019-05-23T08:23:38.133Z,21.82
2019-05-23T08:24:37.474Z,21.95
2019-05-23T08:25:37.527Z,22.02
2019-05-23T08:26:37.317Z,21.98
2019-05-23T08:27:37.222Z,21.98
2019-05-23T08:28:53.362Z,22.00
2019-05-23T08:29:38.344Z,22.07
2019-05-23T08:30:37.260Z,22.15
2019-05-23T08:31:37.207Z,21.98
2019-05-23T08:32:37.244Z,22.13
2019-05-23T08:33:37.178Z,22.10
2019-05-23T08:34:42.398Z,22.06
2019-05-23T08:35:38.138Z,22.10
2019-05-23T08:36:37.134Z,22.11
2019-05-23T08:37:37.657Z,22.15
2019-05-23T08:38:37.426Z,22.14
2019-05-23T08:39:37.165Z,22.18
2019-05-23T08:40:37.494Z,22.15
2019-05-23T08:41:37.087Z,22.15
2019-05-23T08:42:37.057Z,22.14
2019-05-23T08:43:37.287Z,22.11
2019-05-23T08:44:37.480Z,22.15
2019-05-23T08:45:37.148Z,22.14
2019-05-23T08:46:37.596Z,22.11
2019-05-23T08:47:37.015Z,22.17
2019-05-23T08:48:37.455Z,22.13
2019-05-23T08:49:37.084Z,22.17
2019-05-23T08:50:37.430Z,22.11
2019-05-23T08:51:36.964Z,22.13
2019-05-23T08:52:37.094Z,22.20
2019-05-23T08:53:37.028Z,22.17
2019-05-23T08:54:36.924Z,22.14
2019-05-23T08:55:36.946Z,22.08
2019-05-23T08:56:36.989Z,22.22
2019-05-23T08:57:36.902Z,22.20
2019-05-23T08:58:36.912Z,22.20
2019-05-23T08:59:36.871Z,22.20
2019-05-23T09:00:37.097Z,22.17
2019-05-23T09:01:37.277Z,22.17
2019-05-23T09:02:37.272Z,22.18
2019-05-23T09:03:37.008Z,22.17
2019-05-23T09:04:36.822Z,22.10
2019-05-23T09:05:36.847Z,22.15
2019-05-23T09:06:36.809Z,22.17
2019-05-23T09:07:36.882Z,22.14
2019-05-23T09:08:36.971Z,22.11
2019-05-23T09:09:36.784Z,22.10
2019-05-23T09:10:36.749Z,22.15
2019-05-23T09:11:37.640Z,22.17
2019-05-23T09:12:36.733Z,22.11
2019-05-23T09:13:36.769Z,22.13
2019-05-23T09:14:36.744Z,22.13
2019-05-23T09:15:36.708Z,22.13
2019-05-23T09:16:36.684Z,22.20
2019-05-23T09:17:51.571Z,22.20
2019-05-23T09:18:37.710Z,22.15
2019-05-23T09:19:36.654Z,22.15
2019-05-23T09:20:36.665Z,22.13
2019-05-23T09:21:36.657Z,22.07
2019-05-23T09:22:36.623Z,22.15
2019-05-23T09:23:36.610Z,22.14
2019-05-23T09:24:36.803Z,22.18
2019-05-23T09:25:36.580Z,22.13
2019-05-23T09:26:36.647Z,22.11
2019-05-23T09:27:36.560Z,22.20
2019-05-23T09:28:36.574Z,22.25
2019-05-23T09:29:36.855Z,22.13
2019-05-23T09:30:36.976Z,22.14
2019-05-23T09:31:36.534Z,22.11
2019-05-23T09:32:36.607Z,22.17
2019-05-23T09:33:36.519Z,22.25
2019-05-23T09:34:36.976Z,22.22
2019-05-23T09:35:36.510Z,22.26
2019-05-23T09:36:36.484Z,22.25
2019-05-23T09:37:36.502Z,22.22
2019-05-23T09:38:36.770Z,22.20
2019-05-23T09:39:36.435Z,22.25
2019-05-23T09:40:36.453Z,22.25
2019-05-23T09:41:36.524Z,22.29
2019-05-23T09:42:37.128Z,22.25
2019-05-23T09:43:36.395Z,22.25
2019-05-23T09:44:36.399Z,22.25
2019-05-23T09:45:36.547Z,22.22
2019-05-23T09:46:36.387Z,22.28
2019-05-23T09:47:36.798Z,22.26
2019-05-23T09:48:37.247Z,22.20
2019-05-23T09:49:36.467Z,22.25
2019-05-23T09:50:36.316Z,22.18
2019-05-23T09:51:36.347Z,22.22
2019-05-23T09:52:36.295Z,22.30
2019-05-23T09:53:36.288Z,22.18
2019-05-23T09:54:36.434Z,22.22
2019-05-23T09:55:36.259Z,22.28
2019-05-23T09:56:36.280Z,22.25
2019-05-23T09:57:36.236Z,22.28
2019-05-23T09:58:36.254Z,22.25
2019-05-23T09:59:36.274Z,22.26
2019-05-23T10:00:37.332Z,22.28
2019-05-23T10:01:37.190Z,22.25
2019-05-23T10:02:36.179Z,22.15
2019-05-23T10:03:36.410Z,22.18
2019-05-23T10:04:36.198Z,22.18
2019-05-23T10:05:43.377Z,22.17
2019-05-23T10:06:38.101Z,22.14
2019-05-23T10:07:36.146Z,22.10
2019-05-23T10:08:36.201Z,22.18
2019-05-23T10:09:36.108Z,22.13
2019-05-23T10:10:36.102Z,22.14
2019-05-23T10:11:36.658Z,22.10
2019-05-23T10:12:37.085Z,22.14
2019-05-23T10:13:39.432Z,22.13
2019-05-23T10:14:36.372Z,22.17
2019-05-23T10:15:36.036Z,22.20
2019-05-23T10:16:36.021Z,22.15
2019-05-23T10:17:36.234Z,22.17
2019-05-23T10:18:36.029Z,22.08
2019-05-23T10:19:36.012Z,22.17
2019-05-23T10:20:36.039Z,22.02
2019-05-23T10:21:36.809Z,22.10
2019-05-23T10:22:35.965Z,22.10
2019-05-23T10:23:36.293Z,22.20
2019-05-23T10:24:36.148Z,22.10
2019-05-23T10:25:36.252Z,22.08
2019-05-23T10:26:35.916Z,21.99
2019-05-23T10:27:35.906Z,22.06
2019-05-23T10:28:35.926Z,22.08
2019-05-23T10:29:36.524Z,22.02
2019-05-23T10:30:36.040Z,22.08
2019-05-23T10:31:35.884Z,22.08
2019-05-23T10:32:35.851Z,22.08
2019-05-23T10:33:35.864Z,22.10
2019-05-23T10:34:36.159Z,22.04
2019-05-23T10:35:35.811Z,22.11
2019-05-23T10:36:35.854Z,22.11
2019-05-23T10:37:35.794Z,22.13
2019-05-23T10:38:36.093Z,22.11
2019-05-23T10:39:36.202Z,22.18
2019-05-23T10:40:36.522Z,22.07
2019-05-23T10:41:35.833Z,22.15
2019-05-23T10:42:36.435Z,22.15
2019-05-23T10:43:35.840Z,22.08
2019-05-23T10:44:36.476Z,22.15
2019-05-23T10:45:35.710Z,22.11
2019-05-23T10:46:35.703Z,22.13
2019-05-23T10:47:35.942Z,22.10
2019-05-23T10:48:36.165Z,22.07
2019-05-23T10:49:35.927Z,22.14
2019-05-23T10:50:44.580Z,22.15
2019-05-23T10:51:38.652Z,22.25
2019-05-23T10:52:35.624Z,22.20
2019-05-23T10:53:35.660Z,22.22
2019-05-23T10:54:36.014Z,22.23
2019-05-23T10:55:35.856Z,22.23
2019-05-23T10:56:35.706Z,22.30
2019-05-23T10:57:35.594Z,22.26
2019-05-23T10:58:35.685Z,22.28
2019-05-23T10:59:36.067Z,22.36
2019-05-23T11:00:36.569Z,22.23
2019-05-23T11:01:35.668Z,22.20
2019-05-23T11:02:36.889Z,22.20
2019-05-23T11:03:35.675Z,22.13
2019-05-23T11:04:35.509Z,22.20
2019-05-23T11:05:35.490Z,22.07
2019-05-23T11:06:35.579Z,22.07
2019-05-23T11:07:35.988Z,22.02
2019-05-23T11:08:35.535Z,22.02
2019-05-23T11:09:38.310Z,21.95
2019-05-23T11:10:35.458Z,22.04
2019-05-23T11:11:35.945Z,21.95
2019-05-23T11:12:36.072Z,21.93
2019-05-23T11:13:35.423Z,21.96
2019-05-23T11:14:35.461Z,21.98
2019-05-23T11:15:36.031Z,21.89
2019-05-23T11:16:35.440Z,21.89
2019-05-23T11:17:36.353Z,21.85
2019-05-23T11:18:35.417Z,21.83
2019-05-23T11:19:35.638Z,21.95
2019-05-23T11:20:38.049Z,21.98
2019-05-23T11:21:35.421Z,21.93
2019-05-23T11:22:35.656Z,21.88
2019-05-23T11:23:35.307Z,21.95
2019-05-23T11:24:35.366Z,21.93
2019-05-23T11:25:35.417Z,21.88
2019-05-23T11:26:35.487Z,21.85
2019-05-23T11:27:35.279Z,21.82
2019-05-23T11:28:35.271Z,21.85
2019-05-23T11:29:35.232Z,21.79
2019-05-23T11:30:35.327Z,21.77
2019-05-23T11:31:35.304Z,21.77
2019-05-23T11:32:35.308Z,21.77
2019-05-23T11:33:35.254Z,21.80
2019-05-23T11:34:35.172Z,21.79
2019-05-23T11:35:35.158Z,21.83
2019-05-23T11:36:36.734Z,21.79
2019-05-23T11:37:35.130Z,21.75
2019-05-23T11:38:35.116Z,21.79
2019-05-23T11:39:42.270Z,21.77
2019-05-23T11:40:36.101Z,21.72
2019-05-23T11:41:35.088Z,21.79
2019-05-23T11:42:35.184Z,21.64
2019-05-23T11:43:35.104Z,21.66
2019-05-23T11:44:35.234Z,21.72
2019-05-23T11:45:35.065Z,21.76
2019-05-23T11:46:35.034Z,21.73
2019-05-23T11:47:35.087Z,21.69
2019-05-23T11:48:35.119Z,21.77
2019-05-23T11:49:34.999Z,21.76
2019-05-23T11:50:34.987Z,21.66
2019-05-23T11:51:35.092Z,21.76
2019-05-23T11:52:35.063Z,21.69
2019-05-23T11:53:34.979Z,21.70
2019-05-23T11:54:35.139Z,21.73
2019-05-23T11:55:34.930Z,21.66
2019-05-23T11:56:34.968Z,21.67
2019-05-23T11:57:37.573Z,21.70
2019-05-23T11:58:34.901Z,21.70
2019-05-23T11:59:34.888Z,21.69
2019-05-23T12:00:35.070Z,21.69
2019-05-23T12:01:34.884Z,21.67
2019-05-23T12:02:35.037Z,21.75
2019-05-23T12:03:34.936Z,21.66
2019-05-23T12:04:34.834Z,21.75
2019-05-23T12:05:34.837Z,21.70
2019-05-23T12:06:51.709Z,21.70
2019-05-23T12:07:36.172Z,21.75
2019-05-23T12:08:35.906Z,21.75
2019-05-23T12:09:34.817Z,21.79
2019-05-23T12:10:34.773Z,21.91
2019-05-23T12:11:39.477Z,21.85
2019-05-23T12:12:35.996Z,21.95
2019-05-23T12:13:34.745Z,21.95
2019-05-23T12:14:34.751Z,21.92
2019-05-23T12:15:35.053Z,21.99
2019-05-23T12:16:34.752Z,21.96
2019-05-23T12:17:34.693Z,21.82
2019-05-23T12:18:35.203Z,21.93
2019-05-23T12:19:34.679Z,21.75
2019-05-23T12:20:34.662Z,21.80
2019-05-23T12:21:34.764Z,21.83
2019-05-23T12:22:34.794Z,21.82
2019-05-23T12:23:34.646Z,21.88
2019-05-23T12:24:36.047Z,21.79
2019-05-23T12:25:34.658Z,21.77
2019-05-23T12:26:34.743Z,21.79
2019-05-23T12:27:34.580Z,21.83
2019-05-23T12:28:34.703Z,21.91
2019-05-23T12:29:34.623Z,21.80
2019-05-23T12:30:34.825Z,21.83
2019-05-23T12:31:37.167Z,21.80
2019-05-23T12:32:34.540Z,21.85
2019-05-23T12:33:34.515Z,21.83
2019-05-23T12:34:34.509Z,21.88
2019-05-23T12:35:34.566Z,21.85
2019-05-23T12:36:34.541Z,21.89
2019-05-23T12:37:34.479Z,21.82
2019-05-23T12:38:34.466Z,21.89
2019-05-23T12:39:34.450Z,21.79
2019-05-23T12:40:34.489Z,21.76
2019-05-23T12:41:34.448Z,21.73
2019-05-23T12:42:34.456Z,21.82
2019-05-23T12:43:34.458Z,21.77
2019-05-23T12:44:34.491Z,21.82
2019-05-23T12:45:34.408Z,21.80
2019-05-23T12:46:34.380Z,21.70
2019-05-23T12:47:34.415Z,21.69
2019-05-23T12:48:34.368Z,21.62
2019-05-23T12:49:35.181Z,21.75
2019-05-23T12:50:34.421Z,21.72
2019-05-23T12:51:34.368Z,21.77
2019-05-23T12:52:34.317Z,21.80